Furlong, Pennsylvania
Current Conditions -  °F | °C
As of 2:54 AM on Wednesday 26 Nov 2014 (Local Time) from KDYL Reporting Station
Overcast Overcast  
Wind Chill: 40°   Ceiling: 11000
Heat Index: 40°   Visibility: 10mi
Dew Point: 36°   Wind: 3mph
Humidity: 86%   Direction: 150°SSE
Pressure: 30.19"   Gusts: NA
Location:  40.3°N, 75.07°W
Report Text: KDYL 260754Z AUTO 15003KT 10SM OVC110 04/02 A3019 RMK AO2 SLP225 T00440022
Loading
Personal Weather Stations






























Interactive Weather Map New forecast layout! Learn more

10-Day Weather Forecast

Advertisements
Track Severe Weather on mobile